Time;durP1;ratioP1;P1;durP2;ratioP2;P2;SDS_P1;SDS_P2;PMS_P1;PMS_P2;Temp;Humidity;BMP_temperature;BMP_pressure;BME280_temperature;BME280_humidity;BME280_pressure;Samples;Min_cycle;Max_cycle;Signal;HPM_P1;HPM_P2
2022/12/04 00:02:24;;;;;;;3.43;0.87;;;;;;;;;;6138096;23;20049;-44
2022/12/04 00:04:52;;;;;;;2.05;0.60;;;;;;;;;;6105594;23;20326;-42
2022/12/04 00:07:19;;;;;;;1.80;0.65;;;;;;;;;;6130137;23;20069;-43
2022/12/04 00:09:47;;;;;;;2.35;0.80;;;;;;;;;;6133711;23;20025;-44
2022/12/04 00:12:14;;;;;;;3.20;1.15;;;;;;;;;;6136604;23;20070;-42
2022/12/04 00:14:42;;;;;;;2.57;0.63;;;;;;;;;;6135503;23;20429;-42
2022/12/04 00:17:12;;;;;;;2.15;0.50;;;;;;;;;;6136012;23;20026;-43
2022/12/04 00:19:38;;;;;;;3.00;1.52;;;;;;;;;;6134657;23;20536;-43
2022/12/04 00:22:05;;;;;;;1.08;0.20;;;;;;;;;;6135772;23;20022;-42
2022/12/04 00:24:31;;;;;;;3.15;1.00;;;;;;;;;;6134354;23;20455;-45
2022/12/04 00:26:58;;;;;;;2.00;0.50;;;;;;;;;;6136620;23;20033;-44
2022/12/04 00:29:24;;;;;;;1.10;0.20;;;;;;;;;;6138620;23;20179;-44
2022/12/04 00:31:52;;;;;;;1.27;0.20;;;;;;;;;;6134229;23;20025;-42
2022/12/04 00:34:21;;;;;;;6.07;1.42;;;;;;;;;;6106756;23;20024;-43
2022/12/04 00:36:48;;;;;;;1.60;0.63;;;;;;;;;;6139960;23;20496;-42
2022/12/04 00:39:14;;;;;;;3.10;1.03;;;;;;;;;;6129798;23;20024;-42
2022/12/04 00:41:41;;;;;;;2.25;0.43;;;;;;;;;;6137757;23;20060;-42
2022/12/04 00:44:07;;;;;;;1.85;0.65;;;;;;;;;;6133094;23;20037;-42
2022/12/04 00:46:34;;;;;;;2.42;0.93;;;;;;;;;;6137044;23;20101;-44
2022/12/04 00:49:01;;;;;;;1.73;0.60;;;;;;;;;;6131587;23;20018;-42
2022/12/04 00:51:28;;;;;;;1.93;0.80;;;;;;;;;;6132945;23;20381;-43
2022/12/04 00:53:55;;;;;;;1.35;0.30;;;;;;;;;;6132553;23;20096;-44
2022/12/04 00:56:22;;;;;;;1.38;0.28;;;;;;;;;;6109475;23;20219;-43
2022/12/04 00:58:52;;;;;;;2.03;0.57;;;;;;;;;;6109137;23;20028;-44
2022/12/04 01:01:19;;;;;;;2.40;0.85;;;;;;;;;;6139826;23;20017;-44
2022/12/04 01:03:46;;;;;;;2.13;0.60;;;;;;;;;;6135836;23;20065;-42
2022/12/04 01:06:24;;;;;;;1.90;0.70;;;;;;;;;;6138929;23;20021;-42
2022/12/04 01:08:51;;;;;;;1.75;0.50;;;;;;;;;;6135812;23;20018;-47
2022/12/04 01:11:18;;;;;;;1.27;0.22;;;;;;;;;;6135317;23;20468;-42
2022/12/04 01:13:45;;;;;;;1.65;0.30;;;;;;;;;;6139270;23;20121;-44
2022/12/04 01:16:15;;;;;;;1.43;0.43;;;;;;;;;;6137148;23;20519;-42
2022/12/04 01:18:45;;;;;;;2.65;1.02;;;;;;;;;;6139477;23;20100;-43
2022/12/04 01:21:12;;;;;;;4.72;0.65;;;;;;;;;;6138302;23;20021;-47
2022/12/04 01:23:40;;;;;;;1.10;0.25;;;;;;;;;;6135210;23;20318;-43
2022/12/04 01:26:06;;;;;;;2.10;0.80;;;;;;;;;;6142871;23;20017;-42
2022/12/04 01:28:33;;;;;;;1.50;0.30;;;;;;;;;;6137476;23;20025;-44
2022/12/04 01:31:00;;;;;;;1.88;0.73;;;;;;;;;;6114840;23;20068;-44
2022/12/04 01:33:26;;;;;;;3.97;0.90;;;;;;;;;;6132653;23;20385;-42
2022/12/04 01:35:53;;;;;;;1.08;0.28;;;;;;;;;;6140542;23;20017;-43
2022/12/04 01:38:20;;;;;;;1.55;0.50;;;;;;;;;;6136046;23;20044;-45
2022/12/04 01:40:48;;;;;;;2.07;0.60;;;;;;;;;;6140475;23;20445;-46
2022/12/04 01:43:15;;;;;;;1.00;0.20;;;;;;;;;;6108081;23;20066;-44
2022/12/04 01:45:43;;;;;;;1.67;0.52;;;;;;;;;;6139308;23;20440;-44
2022/12/04 01:48:13;;;;;;;5.65;0.98;;;;;;;;;;6112727;23;20475;-43
2022/12/04 01:50:40;;;;;;;3.05;0.73;;;;;;;;;;6136598;23;20080;-46
2022/12/04 01:53:06;;;;;;;1.67;0.53;;;;;;;;;;6136120;23;20018;-43
2022/12/04 01:55:33;;;;;;;0.90;0.10;;;;;;;;;;6133815;23;20013;-43
2022/12/04 01:58:01;;;;;;;4.47;0.93;;;;;;;;;;6137154;23;20069;-42
2022/12/04 02:00:28;;;;;;;1.50;0.40;;;;;;;;;;6137706;23;20021;-44
2022/12/04 02:02:55;;;;;;;2.75;1.15;;;;;;;;;;6140480;23;20385;-42
2022/12/04 02:05:22;;;;;;;2.27;0.70;;;;;;;;;;6123660;23;20390;-44
2022/12/04 02:07:50;;;;;;;1.35;0.63;;;;;;;;;;6110586;23;20118;-42
2022/12/04 02:10:23;;;;;;;1.33;0.40;;;;;;;;;;6138757;23;20021;-45
2022/12/04 02:12:53;;;;;;;1.42;0.40;;;;;;;;;;6137562;23;20026;-44
2022/12/04 02:15:22;;;;;;;2.67;0.50;;;;;;;;;;6126620;23;20338;-44
2022/12/04 02:17:52;;;;;;;2.97;0.70;;;;;;;;;;6140829;23;20504;-42
2022/12/04 02:20:27;;;;;;;3.08;0.60;;;;;;;;;;6135462;23;20028;-43
2022/12/04 02:23:05;;;;;;;1.85;0.70;;;;;;;;;;6142261;23;20014;-43
2022/12/04 02:25:35;;;;;;;1.27;0.20;;;;;;;;;;6136150;23;20026;-43
2022/12/04 02:28:09;;;;;;;5.03;0.70;;;;;;;;;;6109979;23;20333;-43
2022/12/04 02:30:38;;;;;;;1.00;0.20;;;;;;;;;;6138233;23;20028;-44
2022/12/04 02:33:07;;;;;;;3.55;1.05;;;;;;;;;;6112321;23;20436;-43
2022/12/04 02:35:36;;;;;;;1.42;0.40;;;;;;;;;;6140876;23;20013;-44
2022/12/04 02:38:06;;;;;;;1.15;0.20;;;;;;;;;;6137982;23;20511;-44
2022/12/04 02:40:37;;;;;;;1.13;0.17;;;;;;;;;;6139688;23;20025;-46
2022/12/04 02:43:08;;;;;;;1.27;0.40;;;;;;;;;;6141578;23;20013;-44
2022/12/04 02:45:38;;;;;;;1.75;0.90;;;;;;;;;;6135160;23;20532;-42
2022/12/04 02:48:06;;;;;;;2.25;0.40;;;;;;;;;;6140826;23;20515;-43
2022/12/04 02:50:34;;;;;;;1.67;0.57;;;;;;;;;;6138651;23;20025;-44
2022/12/04 02:53:03;;;;;;;1.92;0.95;;;;;;;;;;6142601;23;20014;-43
2022/12/04 02:55:33;;;;;;;1.77;0.60;;;;;;;;;;6139755;23;20076;-42
2022/12/04 02:58:01;;;;;;;1.55;0.45;;;;;;;;;;6139251;23;20013;-42
2022/12/04 03:00:29;;;;;;;2.05;0.68;;;;;;;;;;6137913;23;20523;-42
2022/12/04 03:02:59;;;;;;;2.35;0.75;;;;;;;;;;6140968;23;20068;-43
2022/12/04 03:05:30;;;;;;;1.50;0.40;;;;;;;;;;6137148;23;20065;-42
2022/12/04 03:07:58;;;;;;;3.83;1.13;;;;;;;;;;6141038;23;20026;-43
2022/12/04 03:10:27;;;;;;;2.28;0.55;;;;;;;;;;6138729;23;20625;-42
2022/12/04 03:12:56;;;;;;;2.55;1.20;;;;;;;;;;6139170;23;20014;-45
2022/12/04 03:15:24;;;;;;;2.05;0.75;;;;;;;;;;6134736;23;20397;-45
2022/12/04 03:17:53;;;;;;;1.50;0.65;;;;;;;;;;6137575;23;20021;-42
2022/12/04 03:20:21;;;;;;;2.43;0.90;;;;;;;;;;6139374;23;20028;-42
2022/12/04 03:22:54;;;;;;;1.88;0.88;;;;;;;;;;6142190;23;20065;-44
2022/12/04 03:25:22;;;;;;;4.70;0.40;;;;;;;;;;6140777;23;20014;-45
2022/12/04 03:27:51;;;;;;;3.63;0.82;;;;;;;;;;6138573;23;20018;-42
2022/12/04 03:30:20;;;;;;;1.70;0.40;;;;;;;;;;6139841;23;20029;-44
2022/12/04 03:32:49;;;;;;;2.30;0.60;;;;;;;;;;6130368;23;20377;-43
2022/12/04 03:35:17;;;;;;;1.75;0.50;;;;;;;;;;6143804;23;20385;-43
2022/12/04 03:37:47;;;;;;;1.52;0.30;;;;;;;;;;6136213;23;20064;-43
2022/12/04 03:40:17;;;;;;;1.25;0.25;;;;;;;;;;6140651;23;20014;-44
2022/12/04 03:42:45;;;;;;;1.35;0.30;;;;;;;;;;6141377;23;20017;-42
2022/12/04 03:45:15;;;;;;;1.30;0.30;;;;;;;;;;6129360;23;20077;-42
2022/12/04 03:47:45;;;;;;;1.73;0.30;;;;;;;;;;6137509;23;20013;-46
2022/12/04 03:50:14;;;;;;;2.22;0.75;;;;;;;;;;6142955;23;20017;-43
2022/12/04 03:52:45;;;;;;;1.50;0.20;;;;;;;;;;6137106;23;20021;-42
2022/12/04 03:55:17;;;;;;;2.13;0.88;;;;;;;;;;6133260;23;20025;-43
2022/12/04 03:57:45;;;;;;;2.73;0.80;;;;;;;;;;6142717;23;20025;-45
2022/12/04 04:00:13;;;;;;;2.45;0.40;;;;;;;;;;6134685;23;20017;-44
2022/12/04 04:02:42;;;;;;;2.30;0.60;;;;;;;;;;6142860;23;20401;-43
2022/12/04 04:05:10;;;;;;;1.15;0.28;;;;;;;;;;6137226;23;20515;-43
2022/12/04 04:07:40;;;;;;;1.83;0.55;;;;;;;;;;6138604;23;20014;-43
2022/12/04 04:10:10;;;;;;;1.10;0.30;;;;;;;;;;6140244;23;20068;-42
2022/12/04 04:12:41;;;;;;;2.20;0.77;;;;;;;;;;6137876;23;20481;-43
2022/12/04 04:26:15;;;;;;;2.92;0.50;;;;;;;;;;6141192;23;20397;-42
2022/12/04 04:28:43;;;;;;;3.58;0.85;;;;;;;;;;6135743;23;20081;-44
2022/12/04 04:31:12;;;;;;;1.63;0.88;;;;;;;;;;6141033;23;20040;-42
2022/12/04 04:33:45;;;;;;;1.50;0.40;;;;;;;;;;6136861;23;20039;-43
2022/12/04 04:36:15;;;;;;;2.33;0.57;;;;;;;;;;6139523;23;20014;-42
2022/12/04 04:38:45;;;;;;;2.90;0.50;;;;;;;;;;6139576;23;20048;-42
2022/12/04 04:41:15;;;;;;;2.72;0.60;;;;;;;;;;6137361;23;20021;-44
2022/12/04 04:43:45;;;;;;;2.90;1.10;;;;;;;;;;6135301;23;20021;-42
2022/12/04 04:46:14;;;;;;;1.83;0.88;;;;;;;;;;6136762;23;20022;-43
2022/12/04 04:48:41;;;;;;;3.03;1.10;;;;;;;;;;6142726;23;20013;-43
2022/12/04 04:51:09;;;;;;;2.58;0.80;;;;;;;;;;6138385;23;20021;-45
2022/12/04 04:53:38;;;;;;;1.58;0.40;;;;;;;;;;6139236;23;20017;-43
2022/12/04 04:56:05;;;;;;;1.40;0.40;;;;;;;;;;6140210;23;20017;-43
2022/12/04 04:58:32;;;;;;;1.67;0.43;;;;;;;;;;6136874;23;20069;-43
2022/12/04 05:01:01;;;;;;;1.30;0.43;;;;;;;;;;6138654;23;20069;-42
2022/12/04 05:03:27;;;;;;;1.15;0.20;;;;;;;;;;6141948;23;20020;-43
2022/12/04 05:05:54;;;;;;;1.60;0.45;;;;;;;;;;6136277;23;20017;-43
2022/12/04 05:08:21;;;;;;;2.95;1.35;;;;;;;;;;6138405;23;20043;-44
2022/12/04 05:10:47;;;;;;;4.60;0.65;;;;;;;;;;6137711;23;20230;-45
2022/12/04 05:13:14;;;;;;;1.33;0.50;;;;;;;;;;6139352;23;20014;-42
2022/12/04 05:15:41;;;;;;;2.83;0.88;;;;;;;;;;6139775;23;20464;-42
2022/12/04 05:18:09;;;;;;;2.00;0.82;;;;;;;;;;6136655;23;20448;-43
2022/12/04 05:20:37;;;;;;;1.48;0.43;;;;;;;;;;6141679;23;20018;-45
2022/12/04 05:23:03;;;;;;;1.33;0.50;;;;;;;;;;6137252;23;20017;-42
2022/12/04 05:25:33;;;;;;;3.30;0.60;;;;;;;;;;6137776;23;20018;-44
2022/12/04 05:28:00;;;;;;;1.75;0.73;;;;;;;;;;6111076;23;20017;-42
2022/12/04 05:30:27;;;;;;;2.95;0.35;;;;;;;;;;6141168;23;20045;-42
2022/12/04 05:32:54;;;;;;;1.65;0.50;;;;;;;;;;6137466;23;20357;-44
2022/12/04 05:35:21;;;;;;;1.88;0.70;;;;;;;;;;6138983;23;20014;-45
2022/12/04 05:37:48;;;;;;;3.13;1.30;;;;;;;;;;6137613;23;20066;-45
2022/12/04 05:40:14;;;;;;;2.40;1.10;;;;;;;;;;6139986;23;20017;-42
2022/12/04 05:42:41;;;;;;;4.55;1.10;;;;;;;;;;6140483;23;20077;-42
2022/12/04 05:45:07;;;;;;;2.28;0.90;;;;;;;;;;6136302;23;20703;-42
2022/12/04 05:47:37;;;;;;;1.67;0.65;;;;;;;;;;6143168;23;20017;-45
2022/12/04 05:50:04;;;;;;;4.10;0.83;;;;;;;;;;6133647;23;20017;-43
2022/12/04 05:52:32;;;;;;;3.17;0.95;;;;;;;;;;6140850;23;20033;-45
2022/12/04 05:54:58;;;;;;;2.03;1.05;;;;;;;;;;6134175;23;20025;-42
2022/12/04 05:57:25;;;;;;;2.25;0.82;;;;;;;;;;6138047;23;20044;-43
2022/12/04 05:59:51;;;;;;;1.63;0.63;;;;;;;;;;6134359;23;20017;-43
2022/12/04 06:02:18;;;;;;;3.03;0.80;;;;;;;;;;6141288;23;20080;-42
2022/12/04 06:04:44;;;;;;;2.67;1.48;;;;;;;;;;6136395;23;20018;-43
2022/12/04 06:07:11;;;;;;;1.88;0.47;;;;;;;;;;6137911;23;20013;-43
2022/12/04 06:09:39;;;;;;;2.70;0.98;;;;;;;;;;6134977;23;20021;-44
2022/12/04 06:12:05;;;;;;;1.50;0.40;;;;;;;;;;6138959;23;20018;-42
2022/12/04 06:14:32;;;;;;;2.63;1.17;;;;;;;;;;6142076;23;20269;-42
2022/12/04 06:16:58;;;;;;;2.42;1.15;;;;;;;;;;6130422;23;20013;-42
2022/12/04 06:19:25;;;;;;;1.52;0.45;;;;;;;;;;6114739;23;20338;-45
2022/12/04 06:21:52;;;;;;;5.53;2.65;;;;;;;;;;6134179;23;20014;-42
2022/12/04 06:24:20;;;;;;;3.22;1.23;;;;;;;;;;6139555;23;20453;-43
2022/12/04 06:26:55;;;;;;;4.50;1.23;;;;;;;;;;6134931;23;20052;-43
2022/12/04 06:29:21;;;;;;;1.73;0.60;;;;;;;;;;6137789;23;20017;-42
2022/12/04 06:31:48;;;;;;;4.07;1.60;;;;;;;;;;6137986;23;20040;-47
2022/12/04 06:34:14;;;;;;;1.58;0.45;;;;;;;;;;6137895;23;20021;-42
2022/12/04 06:36:41;;;;;;;9.57;1.55;;;;;;;;;;6138755;23;20441;-44
2022/12/04 06:39:07;;;;;;;1.73;0.83;;;;;;;;;;6137943;23;20085;-43
2022/12/04 06:41:35;;;;;;;3.67;1.42;;;;;;;;;;6140769;23;20025;-46
2022/12/04 06:44:03;;;;;;;2.95;1.30;;;;;;;;;;6139852;23;20100;-43
2022/12/04 06:46:30;;;;;;;3.80;1.77;;;;;;;;;;6107746;23;20048;-42
2022/12/04 06:48:57;;;;;;;3.17;1.13;;;;;;;;;;6141702;23;20024;-45
2022/12/04 06:51:25;;;;;;;5.33;1.47;;;;;;;;;;6136688;23;20654;-45
2022/12/04 06:53:52;;;;;;;4.28;2.33;;;;;;;;;;6137661;23;20452;-43
2022/12/04 06:56:19;;;;;;;5.53;1.52;;;;;;;;;;6139722;23;20018;-42
2022/12/04 06:58:46;;;;;;;2.92;1.17;;;;;;;;;;6134730;23;20017;-43
2022/12/04 07:01:15;;;;;;;3.42;1.30;;;;;;;;;;6139308;23;20021;-44
2022/12/04 07:03:42;;;;;;;16.60;1.87;;;;;;;;;;6138089;23;20036;-44
2022/12/04 07:06:12;;;;;;;4.43;1.75;;;;;;;;;;6139080;23;20061;-42
2022/12/04 07:08:39;;;;;;;4.43;1.98;;;;;;;;;;6112907;23;20046;-47
2022/12/04 07:11:06;;;;;;;2.38;0.90;;;;;;;;;;6136756;23;20024;-44
2022/12/04 07:13:32;;;;;;;2.85;1.48;;;;;;;;;;6139281;23;20108;-46
2022/12/04 07:15:59;;;;;;;7.90;1.53;;;;;;;;;;6139529;23;20595;-43
2022/12/04 07:18:27;;;;;;;3.05;1.17;;;;;;;;;;6135645;23;20018;-43
2022/12/04 07:20:53;;;;;;;3.80;1.75;;;;;;;;;;6138886;23;20017;-42
2022/12/04 07:23:20;;;;;;;4.53;2.00;;;;;;;;;;6136307;23;20956;-44
2022/12/04 07:25:46;;;;;;;3.30;1.30;;;;;;;;;;6141771;23;20014;-45
2022/12/04 07:28:16;;;;;;;3.03;1.67;;;;;;;;;;6135320;23;20377;-44
2022/12/04 07:30:43;;;;;;;2.88;0.93;;;;;;;;;;6141283;23;20021;-43
2022/12/04 07:33:10;;;;;;;4.57;1.33;;;;;;;;;;6136041;23;20035;-44
2022/12/04 07:35:37;;;;;;;2.75;1.00;;;;;;;;;;6142779;23;20024;-43
2022/12/04 07:38:04;;;;;;;8.02;1.70;;;;;;;;;;6136862;23;20064;-42
2022/12/04 07:40:30;;;;;;;3.97;2.10;;;;;;;;;;6140825;23;20018;-42
2022/12/04 07:42:57;;;;;;;2.42;1.10;;;;;;;;;;6140373;23;20069;-44
2022/12/04 07:45:23;;;;;;;6.07;2.72;;;;;;;;;;6135816;23;20028;-43
2022/12/04 07:47:50;;;;;;;5.15;1.77;;;;;;;;;;6142490;23;20429;-46
2022/12/04 07:50:16;;;;;;;3.85;2.22;;;;;;;;;;6133641;23;20468;-43
2022/12/04 07:52:44;;;;;;;3.70;1.33;;;;;;;;;;6142203;23;20049;-43
2022/12/04 07:55:11;;;;;;;4.60;2.40;;;;;;;;;;6135501;23;20014;-44
2022/12/04 07:57:37;;;;;;;4.43;1.85;;;;;;;;;;6141967;23;20080;-43
2022/12/04 08:00:04;;;;;;;4.70;1.85;;;;;;;;;;6136907;23;20013;-43
2022/12/04 08:02:31;;;;;;;4.70;1.40;;;;;;;;;;6142664;23;20017;-42
2022/12/04 08:04:58;;;;;;;6.63;2.90;;;;;;;;;;6135647;23;20495;-42
2022/12/04 08:07:24;;;;;;;6.25;1.60;;;;;;;;;;6142678;23;20058;-44
2022/12/04 08:09:52;;;;;;;2.90;1.40;;;;;;;;;;6138179;23;20337;-44
2022/12/04 08:12:18;;;;;;;3.90;1.40;;;;;;;;;;6139186;23;20139;-43
2022/12/04 08:14:45;;;;;;;3.55;0.90;;;;;;;;;;6136751;23;20476;-46
2022/12/04 08:17:11;;;;;;;3.27;1.83;;;;;;;;;;6141937;23;20389;-45
2022/12/04 08:19:38;;;;;;;4.78;1.13;;;;;;;;;;6109796;23;20013;-47
2022/12/04 08:22:04;;;;;;;7.65;2.97;;;;;;;;;;6139344;23;20022;-44
2022/12/04 08:24:31;;;;;;;2.90;1.25;;;;;;;;;;6140071;23;20017;-42
2022/12/04 08:26:59;;;;;;;2.55;1.15;;;;;;;;;;6113875;23;20021;-43
2022/12/04 08:29:29;;;;;;;5.03;1.70;;;;;;;;;;6134390;23;20020;-44
2022/12/04 08:31:55;;;;;;;2.80;0.82;;;;;;;;;;6140326;23;20438;-42
2022/12/04 08:34:22;;;;;;;3.45;0.85;;;;;;;;;;6138146;23;20149;-44
2022/12/04 08:36:48;;;;;;;3.80;1.38;;;;;;;;;;6140248;23;20022;-42
2022/12/04 08:39:15;;;;;;;2.55;1.27;;;;;;;;;;6136759;23;20448;-42
2022/12/04 08:41:41;;;;;;;2.43;0.57;;;;;;;;;;6136013;23;20072;-43
2022/12/04 08:44:09;;;;;;;2.95;0.85;;;;;;;;;;6140317;23;20021;-43
2022/12/04 08:46:36;;;;;;;5.13;1.95;;;;;;;;;;6135358;23;20017;-42
2022/12/04 08:49:03;;;;;;;3.40;1.17;;;;;;;;;;6135324;23;20049;-44
2022/12/04 08:51:30;;;;;;;6.28;2.00;;;;;;;;;;6108128;23;20018;-44
2022/12/04 08:53:58;;;;;;;5.53;1.93;;;;;;;;;;6137449;23;20025;-42
2022/12/04 08:56:26;;;;;;;5.10;2.25;;;;;;;;;;6135707;23;20021;-42
2022/12/04 08:58:52;;;;;;;3.50;1.02;;;;;;;;;;6139693;23;20103;-43
2022/12/04 09:01:20;;;;;;;4.10;1.65;;;;;;;;;;6137590;23;20561;-43
2022/12/04 09:03:46;;;;;;;3.58;1.50;;;;;;;;;;6139564;23;20021;-44
2022/12/04 09:06:14;;;;;;;2.67;0.87;;;;;;;;;;6137715;23;20077;-44
2022/12/04 09:08:41;;;;;;;3.53;1.67;;;;;;;;;;6141719;23;20024;-44
2022/12/04 09:11:09;;;;;;;4.18;2.47;;;;;;;;;;6131053;23;20396;-45
2022/12/04 09:13:36;;;;;;;3.38;1.27;;;;;;;;;;6114153;23;20021;-44
2022/12/04 09:16:03;;;;;;;3.05;1.23;;;;;;;;;;6138640;23;20029;-42
2022/12/04 09:18:31;;;;;;;2.30;0.90;;;;;;;;;;6136299;23;20519;-42
2022/12/04 09:20:58;;;;;;;4.43;1.95;;;;;;;;;;6138845;23;20500;-43
2022/12/04 09:23:25;;;;;;;4.32;1.65;;;;;;;;;;6138314;23;20013;-43
2022/12/04 09:25:52;;;;;;;3.22;1.40;;;;;;;;;;6137220;23;20064;-44
2022/12/04 09:28:19;;;;;;;5.53;2.65;;;;;;;;;;6134096;23;20025;-42
2022/12/04 09:30:55;;;;;;;4.20;1.90;;;;;;;;;;6141324;23;20028;-45
2022/12/04 09:33:22;;;;;;;2.65;1.33;;;;;;;;;;6133058;23;20032;-46
2022/12/04 09:35:50;;;;;;;2.45;1.08;;;;;;;;;;6140375;23;20576;-42
2022/12/04 09:38:16;;;;;;;9.48;1.08;;;;;;;;;;6132261;23;20018;-46
2022/12/04 09:40:47;;;;;;;1.08;0.20;;;;;;;;;;6111439;23;20033;-44
2022/12/04 09:43:19;;;;;;;3.47;1.83;;;;;;;;;;6133823;23;20847;-42
2022/12/04 09:45:47;;;;;;;3.35;1.52;;;;;;;;;;6106127;23;20446;-43
2022/12/04 09:48:16;;;;;;;5.35;1.65;;;;;;;;;;6106888;23;20062;-44
2022/12/04 09:50:43;;;;;;;6.25;1.13;;;;;;;;;;6111415;23;20037;-45
2022/12/04 09:53:12;;;;;;;2.03;0.57;;;;;;;;;;6107678;23;20021;-42
2022/12/04 09:55:40;;;;;;;3.50;1.67;;;;;;;;;;6109071;23;20014;-44
2022/12/04 09:58:10;;;;;;;4.28;1.40;;;;;;;;;;6108882;23;20470;-42
2022/12/04 10:00:38;;;;;;;2.55;1.35;;;;;;;;;;6107816;23;20017;-43
2022/12/04 10:03:06;;;;;;;4.80;2.15;;;;;;;;;;6103514;23;20022;-43
2022/12/04 10:05:42;;;;;;;3.85;2.63;;;;;;;;;;6108629;23;20147;-44
2022/12/04 10:08:12;;;;;;;3.60;1.63;;;;;;;;;;6098270;23;20030;-42
2022/12/04 10:10:42;;;;;;;3.90;1.23;;;;;;;;;;6104313;23;20018;-46
2022/12/04 10:13:25;;;;;;;4.38;1.42;;;;;;;;;;6100432;23;20022;-44
2022/12/04 10:15:54;;;;;;;3.45;1.58;;;;;;;;;;6108262;23;20402;-42
2022/12/04 10:18:36;;;;;;;2.13;0.70;;;;;;;;;;6100747;23;20497;-42
2022/12/04 10:21:10;;;;;;;3.33;1.07;;;;;;;;;;6103045;23;20018;-42
2022/12/04 10:23:43;;;;;;;2.67;0.95;;;;;;;;;;6082570;23;20357;-44
2022/12/04 10:26:13;;;;;;;5.43;1.77;;;;;;;;;;6102319;23;20021;-42
2022/12/04 10:28:41;;;;;;;3.97;1.35;;;;;;;;;;6108248;23;20025;-44
2022/12/04 10:31:13;;;;;;;4.93;1.48;;;;;;;;;;6105847;23;20022;-44
2022/12/04 10:33:41;;;;;;;2.37;0.80;;;;;;;;;;6079281;23;20085;-42
2022/12/04 10:36:10;;;;;;;2.55;1.10;;;;;;;;;;6101090;23;20018;-42
2022/12/04 10:38:39;;;;;;;4.18;1.33;;;;;;;;;;6104431;23;20598;-42
2022/12/04 10:41:10;;;;;;;4.13;1.38;;;;;;;;;;6082857;23;20805;-42
2022/12/04 10:43:41;;;;;;;3.63;0.73;;;;;;;;;;6100592;23;20022;-42
2022/12/04 10:46:10;;;;;;;4.33;1.90;;;;;;;;;;6106131;23;20010;-42
2022/12/04 10:48:38;;;;;;;2.67;0.60;;;;;;;;;;6102344;23;20513;-42
2022/12/04 10:51:05;;;;;;;4.72;1.48;;;;;;;;;;6106326;23;20074;-44
2022/12/04 10:53:32;;;;;;;3.65;1.27;;;;;;;;;;6104674;23;20032;-43
2022/12/04 10:56:08;;;;;;;4.20;1.45;;;;;;;;;;6110576;23;20021;-42
2022/12/04 10:58:34;;;;;;;2.43;0.57;;;;;;;;;;6110911;23;20022;-42
2022/12/04 11:01:04;;;;;;;1.92;0.63;;;;;;;;;;6101881;23;20022;-44
2022/12/04 11:03:31;;;;;;;1.65;0.68;;;;;;;;;;6109240;23;20046;-42
2022/12/04 11:05:58;;;;;;;4.35;1.73;;;;;;;;;;6083618;23;20073;-46
2022/12/04 11:08:26;;;;;;;3.15;1.00;;;;;;;;;;6110579;23;20437;-43
2022/12/04 11:10:57;;;;;;;4.80;2.17;;;;;;;;;;6107624;23;20065;-44
2022/12/04 11:13:23;;;;;;;4.72;1.38;;;;;;;;;;6112662;23;20219;-42
2022/12/04 11:15:51;;;;;;;5.18;1.92;;;;;;;;;;6079873;23;20441;-43
2022/12/04 11:18:21;;;;;;;5.28;1.52;;;;;;;;;;6108806;23;20368;-42
2022/12/04 11:20:52;;;;;;;7.35;1.83;;;;;;;;;;6112667;23;20077;-42
2022/12/04 11:23:19;;;;;;;3.93;2.07;;;;;;;;;;6082308;23;20029;-44
2022/12/04 11:25:46;;;;;;;4.45;1.55;;;;;;;;;;6110488;23;20018;-45
2022/12/04 11:28:15;;;;;;;4.55;1.85;;;;;;;;;;6108693;23;20022;-44
2022/12/04 11:30:46;;;;;;;4.47;2.20;;;;;;;;;;6112367;23;20022;-42
2022/12/04 11:33:18;;;;;;;2.33;0.70;;;;;;;;;;6110468;23;20453;-42
2022/12/04 11:35:52;;;;;;;4.23;1.43;;;;;;;;;;6109130;23;20018;-44
2022/12/04 11:38:19;;;;;;;2.78;1.70;;;;;;;;;;6108295;23;20497;-44
2022/12/04 11:40:46;;;;;;;2.95;1.85;;;;;;;;;;6113818;23;20513;-41
2022/12/04 11:43:14;;;;;;;3.65;1.98;;;;;;;;;;6104660;23;20515;-42
2022/12/04 11:45:41;;;;;;;4.75;2.28;;;;;;;;;;6086464;23;20049;-42
2022/12/04 11:48:13;;;;;;;5.23;1.83;;;;;;;;;;6107410;23;20516;-42
2022/12/04 11:50:45;;;;;;;5.93;1.08;;;;;;;;;;6112950;23;20018;-42
2022/12/04 11:53:15;;;;;;;3.50;1.75;;;;;;;;;;6090314;23;20919;-42
2022/12/04 11:55:47;;;;;;;10.10;2.25;;;;;;;;;;6102321;23;20441;-42
2022/12/04 11:58:23;;;;;;;8.52;2.55;;;;;;;;;;6097165;23;20360;-43
2022/12/04 12:00:55;;;;;;;3.10;0.97;;;;;;;;;;6104286;23;20049;-42
2022/12/04 12:03:26;;;;;;;3.63;2.50;;;;;;;;;;6100435;23;20050;-41
2022/12/04 12:06:18;;;;;;;4.25;2.05;;;;;;;;;;6100941;23;20045;-43
2022/12/04 12:08:54;;;;;;;3.88;1.20;;;;;;;;;;6099809;23;20422;-42
2022/12/04 12:11:25;;;;;;;2.92;1.35;;;;;;;;;;6099165;23;20022;-41
2022/12/04 12:13:58;;;;;;;4.87;2.30;;;;;;;;;;6103176;23;20018;-41
2022/12/04 12:16:27;;;;;;;7.20;4.28;;;;;;;;;;6098529;23;20468;-42
2022/12/04 12:19:03;;;;;;;4.90;1.77;;;;;;;;;;6101479;23;20030;-43
2022/12/04 12:21:35;;;;;;;2.72;1.13;;;;;;;;;;6096787;23;20332;-44
2022/12/04 12:24:09;;;;;;;3.92;1.77;;;;;;;;;;6103045;23;20509;-44
2022/12/04 12:26:39;;;;;;;2.60;1.53;;;;;;;;;;6098615;23;20042;-42
2022/12/04 12:29:14;;;;;;;3.22;1.48;;;;;;;;;;6103152;23;20061;-44
2022/12/04 12:31:52;;;;;;;4.65;2.75;;;;;;;;;;6103179;23;20025;-44
2022/12/04 12:34:27;;;;;;;4.10;1.40;;;;;;;;;;6097350;23;20036;-41
2022/12/04 12:36:54;;;;;;;6.18;2.13;;;;;;;;;;6100852;23;20018;-44
2022/12/04 12:39:24;;;;;;;4.47;1.63;;;;;;;;;;6098059;23;20018;-43
2022/12/04 12:41:52;;;;;;;11.35;2.45;;;;;;;;;;6101739;23;20155;-42
2022/12/04 12:44:22;;;;;;;6.97;2.75;;;;;;;;;;6105809;23;20087;-42
2022/12/04 12:46:50;;;;;;;2.20;1.13;;;;;;;;;;6099246;23;20091;-42
2022/12/04 12:49:21;;;;;;;3.17;0.80;;;;;;;;;;6033153;23;20361;-44
2022/12/04 12:51:48;;;;;;;2.50;0.77;;;;;;;;;;6133515;23;20012;-41
2022/12/04 12:54:21;;;;;;;2.88;1.30;;;;;;;;;;6112318;23;20021;-42
2022/12/04 12:56:51;;;;;;;5.50;1.60;;;;;;;;;;6156446;23;20459;-42
2022/12/04 12:59:20;;;;;;;5.88;2.13;;;;;;;;;;6143887;23;20017;-40
2022/12/04 13:01:48;;;;;;;5.18;2.03;;;;;;;;;;6159329;23;20013;-39
2022/12/04 13:04:19;;;;;;;2.80;1.17;;;;;;;;;;6136565;23;20103;-40
2022/12/04 13:06:48;;;;;;;5.40;1.65;;;;;;;;;;6126729;23;20499;-39
2022/12/04 13:09:18;;;;;;;6.63;2.17;;;;;;;;;;6133773;23;20017;-40
2022/12/04 13:11:47;;;;;;;3.45;1.25;;;;;;;;;;6140841;23;20013;-40
2022/12/04 13:14:14;;;;;;;3.45;0.82;;;;;;;;;;6132804;23;20017;-40
2022/12/04 13:16:43;;;;;;;3.07;1.93;;;;;;;;;;6141037;23;20029;-41
2022/12/04 13:19:14;;;;;;;5.05;2.40;;;;;;;;;;6139781;23;20503;-40
2022/12/04 13:21:42;;;;;;;3.75;1.40;;;;;;;;;;6160294;23;20021;-40
2022/12/04 13:24:30;;;;;;;6.18;1.73;;;;;;;;;;6154441;23;20021;-40
2022/12/04 13:27:01;;;;;;;5.00;2.15;;;;;;;;;;6137710;23;20029;-40
2022/12/04 13:29:36;;;;;;;4.00;2.73;;;;;;;;;;6158474;23;20025;-44
2022/12/04 13:32:06;;;;;;;3.97;2.08;;;;;;;;;;6161595;23;20017;-39
2022/12/04 13:34:44;;;;;;;6.57;1.88;;;;;;;;;;6158767;23;20017;-39
2022/12/04 13:37:25;;;;;;;2.15;0.75;;;;;;;;;;6133809;23;20024;-40
2022/12/04 13:40:06;;;;;;;8.48;2.50;;;;;;;;;;6167516;23;20017;-41
2022/12/04 13:42:33;;;;;;;4.27;2.40;;;;;;;;;;6135313;23;20028;-39
2022/12/04 13:45:06;;;;;;;6.82;2.30;;;;;;;;;;6156631;23;20027;-39
2022/12/04 13:47:33;;;;;;;6.32;2.60;;;;;;;;;;6152713;23;20459;-40
2022/12/04 13:50:25;;;;;;;3.88;2.67;;;;;;;;;;6155319;23;20542;-39
2022/12/04 13:52:52;;;;;;;3.85;1.58;;;;;;;;;;6159923;23;20146;-40
2022/12/04 13:55:23;;;;;;;7.00;1.83;;;;;;;;;;6128485;23;20051;-40
2022/12/04 13:57:54;;;;;;;4.07;1.90;;;;;;;;;;6126826;23;20132;-40
2022/12/04 14:00:26;;;;;;;3.67;1.33;;;;;;;;;;6149885;23;20505;-39
2022/12/04 14:02:53;;;;;;;2.75;1.40;;;;;;;;;;6164705;23;20024;-39
2022/12/04 14:05:26;;;;;;;4.55;1.67;;;;;;;;;;6147481;23;20031;-40
2022/12/04 14:07:58;;;;;;;4.23;2.13;;;;;;;;;;6161159;23;20356;-40
2022/12/04 14:10:27;;;;;;;4.28;2.28;;;;;;;;;;6145457;23;20037;-39
2022/12/04 14:12:57;;;;;;;8.27;1.75;;;;;;;;;;6154208;23;20049;-40
2022/12/04 14:15:26;;;;;;;5.35;1.27;;;;;;;;;;6161727;23;20025;-40
2022/12/04 14:17:58;;;;;;;1.88;0.70;;;;;;;;;;6159844;23;20017;-40
2022/12/04 14:20:26;;;;;;;3.20;1.47;;;;;;;;;;6133174;23;20080;-39
2022/12/04 14:22:52;;;;;;;8.82;2.58;;;;;;;;;;6149385;23;20490;-42
2022/12/04 14:25:25;;;;;;;8.98;2.45;;;;;;;;;;6163999;23;20470;-40
2022/12/04 14:27:52;;;;;;;6.25;2.40;;;;;;;;;;6163121;23;20021;-40
2022/12/04 14:30:20;;;;;;;8.23;2.90;;;;;;;;;;6157753;23;20490;-40
2022/12/04 14:32:49;;;;;;;3.80;1.50;;;;;;;;;;6164317;23;20013;-40
2022/12/04 14:35:20;;;;;;;4.82;2.13;;;;;;;;;;6160389;23;20029;-40
2022/12/04 14:37:50;;;;;;;3.70;2.03;;;;;;;;;;6160768;23;20021;-41
2022/12/04 14:40:20;;;;;;;8.35;2.28;;;;;;;;;;6154162;23;20013;-40
2022/12/04 14:42:47;;;;;;;6.88;2.20;;;;;;;;;;6157184;23;20087;-40
2022/12/04 14:45:20;;;;;;;3.20;0.97;;;;;;;;;;6069918;23;20434;-39
2022/12/04 14:47:50;;;;;;;4.22;1.98;;;;;;;;;;6113650;23;20080;-41
2022/12/04 14:50:22;;;;;;;6.05;2.00;;;;;;;;;;6086905;23;20604;-40
2022/12/04 14:52:53;;;;;;;5.35;2.08;;;;;;;;;;6120986;23;20092;-41
2022/12/04 14:55:25;;;;;;;7.65;1.73;;;;;;;;;;6118472;23;20424;-39
2022/12/04 14:57:54;;;;;;;4.23;2.43;;;;;;;;;;6127025;23;20017;-43
2022/12/04 15:00:22;;;;;;;5.47;1.73;;;;;;;;;;6112960;23;20013;-40
2022/12/04 15:02:51;;;;;;;2.97;1.52;;;;;;;;;;6086142;23;20554;-40
2022/12/04 15:05:20;;;;;;;3.47;1.88;;;;;;;;;;6062497;23;20080;-40